Aeroporto :
LOGIN :

Iscrizione | Disclaimer

   EN    FR    IT 

 










Sommario :    VFR   VFR Marginale   IFR   IFR Intensivo   IFR Molto Intensivo
Visibilità : 
Base nubi : 
>= 8 km
>= 3000ft
5 / 8 km
1000 / 3000 ft
1500m / 5 km
500 / 1000 ft
800 / 1500m
200 / 500 ft
< 800m
< 200 ft
Simboli :   Temporali  Nebbia  Neve Forte  Precipitazioni Forti  Vento > 20 kt
SIGMETs :   Varie  Temporali  Ghiacco  Turbolenza  Onda orograficha  Ceneri Vulcaniche






- Altitudine del aeroporto : 3 ft
- Codice IATA : DHR


EHKD - Den Helder De Kooy

ULTIMO METAR :
  • 030125Z AUTO 36007KT 330V030 9999 OVC160 15/11 Q1008 BLU

METARs OBSOLETI :
  • 030055Z AUTO 01007KT 330V040 9999 OVC170 15/10 Q1009 BLU
  • 030025Z AUTO 36007KT 320V050 9999 OVC180/// 15/10 Q1009 BLU
  • 022355Z AUTO 36007KT 320V050 9999 FEW180 15/11 Q1010 BLU
  • 022325Z AUTO 36007KT 310V040 9999 FEW015CB OVC190 15/11 Q1010 BLU
  • 022255Z AUTO 36007KT 320V040 9999 FEW015CB OVC180 15/12 Q1011 BLU

TAF TAF EHKD
Valido dal 03 a 01 ore il 03 a 13 ore UTC


030019Z 0301/0313 36008KT CAVOK
BECMG 0305/0307 35010G20KT



MetMap, La meteo Aeronautica in un colpo d'occhio ! - Copyright ORBIFLY Dicembre 2007 - Disclaimer

ORBIFLY MET'MAP TEAM :

Programmazione e sviluppo : Alexandra Zaïnal
Concezione : Baudouin d'Aumeries
Aiuto per la programmazione : Marc-Olivier Méhu
Supporto tecnico e logistico : Manuel Goepfert
Aiuto per la traduzione : Arnaldo La Scala

Contatto : metmap@orbifly.com




FONTI E CREDITI :

   NOAA